createdAt,value
2023-04-20T00:00:38.562Z,4.6156
2023-04-20T00:01:40.246Z,4.5481
2023-04-20T00:02:42.362Z,4.4907
2023-04-20T00:03:44.556Z,4.4676
2023-04-20T00:04:46.480Z,4.4666
2023-04-20T00:05:48.178Z,4.4890
2023-04-20T00:06:49.875Z,4.4892
2023-04-20T00:07:51.607Z,4.5603
2023-04-20T00:08:53.322Z,4.4911
2023-04-20T00:09:55.164Z,4.4431
2023-04-20T00:10:57.016Z,4.4593
2023-04-20T00:11:58.796Z,4.5110
2023-04-20T00:13:00.469Z,4.4833
2023-04-20T00:14:02.152Z,4.4452
2023-04-20T00:15:03.848Z,4.4547
2023-04-20T00:16:05.579Z,4.4253
2023-04-20T00:17:07.450Z,4.4112
2023-04-20T00:18:09.170Z,4.4553
2023-04-20T00:19:10.863Z,4.4864
2023-04-20T00:20:12.559Z,4.4973
2023-04-20T00:21:14.324Z,4.4532
2023-04-20T00:22:16.007Z,4.4294
2023-04-20T00:23:17.651Z,4.4462
2023-04-20T00:24:19.318Z,4.5144
2023-04-20T00:25:20.949Z,4.4837
2023-04-20T00:26:22.658Z,4.4949
2023-04-20T00:27:24.404Z,4.5166
2023-04-20T00:28:26.124Z,4.4919
2023-04-20T00:29:27.846Z,4.4566
2023-04-20T00:30:29.511Z,4.4792
2023-04-20T00:31:31.201Z,4.5676
2023-04-20T00:32:32.911Z,4.5235
2023-04-20T00:33:34.710Z,4.4935
2023-04-20T00:34:36.429Z,4.4663
2023-04-20T00:35:38.140Z,4.4615
2023-04-20T00:36:39.861Z,4.4698
2023-04-20T00:37:41.567Z,4.4956
2023-04-20T00:38:43.230Z,4.5100
2023-04-20T00:39:44.949Z,4.5837
2023-04-20T00:40:46.680Z,4.4577
2023-04-20T00:41:48.348Z,4.5297
2023-04-20T00:42:50.034Z,4.5587
2023-04-20T00:43:51.871Z,4.5539
2023-04-20T00:44:53.591Z,4.4793
2023-04-20T00:45:55.279Z,4.5448
2023-04-20T00:46:56.967Z,4.4847
2023-04-20T00:47:58.703Z,4.4652
2023-04-20T00:49:00.410Z,4.5096
2023-04-20T00:50:02.160Z,4.4981
2023-04-20T00:51:03.873Z,4.5706
2023-04-20T00:52:05.588Z,4.5731
2023-04-20T00:53:07.297Z,4.5920
2023-04-20T00:54:09.092Z,4.5633
2023-04-20T00:55:10.729Z,4.5622
2023-04-20T00:56:12.457Z,4.5389
2023-04-20T00:57:14.126Z,4.5384
2023-04-20T00:58:15.817Z,4.5511
2023-04-20T00:59:17.682Z,4.5078
2023-04-20T01:00:19.573Z,4.5260
2023-04-20T01:01:21.298Z,4.5427
2023-04-20T01:02:23.114Z,4.5604
2023-04-20T01:03:25.105Z,4.5286
2023-04-20T01:04:26.902Z,4.5598
2023-04-20T01:05:28.636Z,4.5033
2023-04-20T01:06:30.344Z,4.5949
2023-04-20T01:07:32.084Z,4.5334
2023-04-20T01:08:33.858Z,4.5939
2023-04-20T01:09:35.585Z,4.5669
2023-04-20T01:10:37.309Z,4.4933
2023-04-20T01:11:39.010Z,4.5030
2023-04-20T01:12:40.678Z,4.5329
2023-04-20T01:13:42.424Z,4.5222
2023-04-20T01:14:44.129Z,4.5366
2023-04-20T01:15:45.880Z,4.5803
2023-04-20T01:16:47.586Z,4.6086
2023-04-20T01:17:49.338Z,4.5480
2023-04-20T01:18:51.106Z,4.5779
2023-04-20T01:19:52.784Z,4.6322
2023-04-20T01:20:54.558Z,4.6535
2023-04-20T01:21:56.238Z,4.6126
2023-04-20T01:22:58.139Z,4.6091
2023-04-20T01:23:59.874Z,4.5878
2023-04-20T01:25:01.695Z,4.5920
2023-04-20T01:26:03.368Z,4.5866
2023-04-20T01:27:05.106Z,4.6098
2023-04-20T01:28:06.823Z,4.6182
2023-04-20T01:29:08.574Z,4.6174
2023-04-20T01:30:10.289Z,4.6463
2023-04-20T01:31:12.012Z,4.7061
2023-04-20T01:32:13.660Z,4.7353
2023-04-20T01:33:15.541Z,4.7054
2023-04-20T01:34:17.203Z,4.7219
2023-04-20T01:35:19.016Z,4.6949
2023-04-20T01:36:20.712Z,4.6957
2023-04-20T01:37:23.336Z,4.6748
2023-04-20T01:38:25.147Z,4.6689
2023-04-20T01:39:26.941Z,4.6079
2023-04-20T01:40:28.667Z,4.6053
2023-04-20T01:41:30.390Z,4.6169
2023-04-20T01:42:32.084Z,4.6473
2023-04-20T01:43:33.803Z,4.5786
2023-04-20T01:44:35.509Z,4.6163
2023-04-20T01:45:37.263Z,4.5973
2023-04-20T01:46:38.975Z,4.6478
2023-04-20T01:47:40.751Z,4.6802
2023-04-20T01:48:42.431Z,4.6438
2023-04-20T01:49:44.151Z,4.6392
2023-04-20T01:50:45.860Z,4.6017
2023-04-20T01:51:47.559Z,4.6865
2023-04-20T01:52:49.241Z,4.6102
2023-04-20T01:53:50.953Z,4.6812
2023-04-20T01:54:52.752Z,4.7444
2023-04-20T01:55:54.451Z,4.7278
2023-04-20T01:56:56.175Z,4.6607
2023-04-20T01:57:57.967Z,4.7090
2023-04-20T01:58:59.666Z,4.7274
2023-04-20T02:00:01.368Z,4.6759
2023-04-20T02:01:03.133Z,4.6398
2023-04-20T02:02:04.934Z,4.6119
2023-04-20T02:03:06.821Z,4.6657
2023-04-20T02:04:08.725Z,4.7213
2023-04-20T02:05:10.479Z,4.6935
2023-04-20T02:06:12.238Z,4.7515
2023-04-20T02:07:13.967Z,4.6873
2023-04-20T02:08:15.734Z,4.6932
2023-04-20T02:09:17.652Z,4.6838
2023-04-20T02:10:19.501Z,4.6732
2023-04-20T02:11:21.228Z,4.6046
2023-04-20T02:12:23.001Z,4.6827
2023-04-20T02:13:24.805Z,4.7212
2023-04-20T02:14:26.569Z,4.6808
2023-04-20T02:15:28.327Z,4.7869
2023-04-20T02:16:30.088Z,4.7633
2023-04-20T02:17:31.949Z,4.7807
2023-04-20T02:18:33.650Z,4.7692
2023-04-20T02:19:35.424Z,4.7070
2023-04-20T02:20:37.144Z,4.6703
2023-04-20T02:21:39.088Z,4.6569
2023-04-20T02:22:40.861Z,4.7885
2023-04-20T02:23:42.676Z,4.7755
2023-04-20T02:24:44.444Z,4.8410
2023-04-20T02:25:46.135Z,4.8157
2023-04-20T02:26:47.861Z,4.7024
2023-04-20T02:27:49.613Z,4.8165
2023-04-20T02:28:51.334Z,4.8011
2023-04-20T02:29:53.048Z,4.7703
2023-04-20T02:30:54.854Z,4.6890
2023-04-20T02:31:56.574Z,4.7568
2023-04-20T02:32:58.371Z,4.7213
2023-04-20T02:34:00.153Z,4.7040
2023-04-20T02:35:01.840Z,4.7972
2023-04-20T02:36:03.583Z,4.8188
2023-04-20T02:37:05.427Z,4.7839
2023-04-20T02:38:07.237Z,4.7175
2023-04-20T02:39:08.967Z,4.7314
2023-04-20T02:40:10.735Z,4.8020
2023-04-20T02:41:12.486Z,4.7724
2023-04-20T02:42:14.311Z,4.6887
2023-04-20T02:43:16.180Z,4.7301
2023-04-20T02:44:17.922Z,4.7476
2023-04-20T02:45:19.742Z,4.7060
2023-04-20T02:46:21.576Z,4.7803
2023-04-20T02:47:23.418Z,4.7438
2023-04-20T02:48:25.181Z,4.7639
2023-04-20T02:49:27.167Z,4.7504
2023-04-20T02:50:28.929Z,4.7946
2023-04-20T02:51:30.670Z,4.8481
2023-04-20T02:52:32.467Z,4.8222
2023-04-20T02:53:34.290Z,4.8442
2023-04-20T02:54:36.031Z,4.8713
2023-04-20T02:55:37.874Z,4.8330
2023-04-20T02:56:39.628Z,4.8242
2023-04-20T02:57:41.431Z,4.7403
2023-04-20T02:58:43.180Z,4.6913
2023-04-20T02:59:44.920Z,4.6747
2023-04-20T03:00:46.661Z,4.6694
2023-04-20T03:01:48.468Z,4.7140
2023-04-20T03:02:50.335Z,4.7029
2023-04-20T03:03:52.566Z,4.6971
2023-04-20T03:04:54.513Z,4.6869
2023-04-20T03:05:56.788Z,4.7078
2023-04-20T03:06:58.701Z,4.7091
2023-04-20T03:08:00.412Z,4.7184
2023-04-20T03:09:02.182Z,4.7345
2023-04-20T03:10:03.937Z,4.7742
2023-04-20T03:11:05.712Z,4.7222
2023-04-20T03:12:07.475Z,4.7519
2023-04-20T03:13:09.247Z,4.7206
2023-04-20T03:14:11.025Z,4.6928
2023-04-20T03:15:12.772Z,4.6923
2023-04-20T03:16:14.561Z,4.7191
2023-04-20T03:17:16.250Z,4.6825
2023-04-20T03:18:18.030Z,4.6971
2023-04-20T03:19:19.916Z,4.7949
2023-04-20T03:20:21.741Z,4.8027
2023-04-20T03:21:23.494Z,4.7833
2023-04-20T03:22:25.243Z,4.7907
2023-04-20T03:23:27.058Z,4.7979
2023-04-20T03:24:28.761Z,4.7173
2023-04-20T03:25:30.552Z,4.6206
2023-04-20T03:26:32.442Z,4.6767
2023-04-20T03:27:34.259Z,4.7518
2023-04-20T03:28:36.006Z,4.7338
2023-04-20T03:29:37.741Z,4.7157
2023-04-20T03:30:39.421Z,4.7337
2023-04-20T03:31:41.213Z,4.8161
2023-04-20T03:32:43.035Z,4.7655
2023-04-20T03:33:44.779Z,4.7834
2023-04-20T03:34:46.508Z,4.7851
2023-04-20T03:35:48.339Z,4.7730
2023-04-20T03:36:50.054Z,4.7641
2023-04-20T03:37:51.787Z,4.7649
2023-04-20T03:38:53.494Z,4.7904
2023-04-20T03:39:55.213Z,4.7949
2023-04-20T03:40:56.950Z,4.7611
2023-04-20T03:41:58.684Z,4.7893
2023-04-20T03:43:00.447Z,4.7754
2023-04-20T03:44:02.182Z,4.7832
2023-04-20T03:45:03.999Z,4.7962
2023-04-20T03:46:05.777Z,4.8023
2023-04-20T03:47:07.609Z,4.7632
2023-04-20T03:48:09.384Z,4.7950
2023-04-20T03:49:11.197Z,4.8171
2023-04-20T03:50:13.204Z,4.7483
2023-04-20T03:51:14.973Z,4.7420
2023-04-20T03:52:16.799Z,4.8005
2023-04-20T03:53:18.620Z,4.7637
2023-04-20T03:54:20.457Z,4.8375
2023-04-20T03:55:22.220Z,4.7904
2023-04-20T03:56:24.040Z,4.8211
2023-04-20T03:57:25.836Z,4.7569
2023-04-20T03:58:27.565Z,4.7941
2023-04-20T03:59:29.321Z,4.8166
2023-04-20T04:00:31.070Z,4.7809
2023-04-20T04:01:32.874Z,4.7836
2023-04-20T04:02:37.564Z,4.7809
2023-04-20T04:03:37.404Z,4.7572
2023-04-20T04:04:39.568Z,4.7557
2023-04-20T04:05:41.324Z,4.7565
2023-04-20T04:06:43.227Z,4.7279
2023-04-20T04:07:45.158Z,4.7756
2023-04-20T04:08:46.932Z,4.7590
2023-04-20T04:09:48.634Z,4.7227
2023-04-20T04:10:50.380Z,4.7071
2023-04-20T04:11:52.116Z,4.7197
2023-04-20T04:12:53.902Z,4.7070
2023-04-20T04:13:55.675Z,4.6555
2023-04-20T04:14:57.450Z,4.7069
2023-04-20T04:15:59.290Z,4.7250
2023-04-20T04:17:01.167Z,4.7338
2023-04-20T04:18:02.927Z,4.7213
2023-04-20T04:19:04.763Z,4.7127
2023-04-20T04:20:06.533Z,4.6497
2023-04-20T04:21:08.334Z,4.6380
2023-04-20T04:22:10.154Z,4.6584
2023-04-20T04:23:11.895Z,4.6860
2023-04-20T04:24:13.770Z,4.7494
2023-04-20T04:25:15.547Z,4.7638
2023-04-20T04:26:17.332Z,4.6862
2023-04-20T04:27:19.225Z,4.6066
2023-04-20T04:28:21.063Z,4.6610
2023-04-20T04:29:22.855Z,4.6867
2023-04-20T04:30:24.626Z,4.6344
2023-04-20T04:31:26.484Z,4.5646
2023-04-20T04:32:28.458Z,4.5902
2023-04-20T04:33:30.235Z,4.6577
2023-04-20T04:34:31.987Z,4.6155
2023-04-20T04:35:33.867Z,4.6021
2023-04-20T04:36:35.585Z,4.6113
2023-04-20T04:37:37.618Z,4.6315
2023-04-20T04:38:39.406Z,4.6674
2023-04-20T04:39:41.152Z,4.7011
2023-04-20T04:40:42.874Z,4.6376
2023-04-20T04:41:44.674Z,4.5792
2023-04-20T04:42:46.501Z,4.6592
2023-04-20T04:43:48.255Z,4.6441
2023-04-20T04:44:50.041Z,4.6405
2023-04-20T04:45:51.808Z,4.6509
2023-04-20T04:46:53.589Z,4.6226
2023-04-20T04:47:55.548Z,4.6336
2023-04-20T04:48:57.340Z,4.6686
2023-04-20T04:49:59.080Z,4.7018
2023-04-20T04:51:00.849Z,4.6798
2023-04-20T04:52:02.612Z,4.7417
2023-04-20T04:53:04.500Z,4.6841
2023-04-20T04:54:06.572Z,4.6722
2023-04-20T04:55:08.519Z,4.6326
2023-04-20T04:56:10.359Z,4.6616
2023-04-20T04:57:12.145Z,4.5821
2023-04-20T04:58:14.115Z,4.6175
2023-04-20T04:59:16.153Z,4.6004
2023-04-20T05:00:18.263Z,4.5307
2023-04-20T05:01:20.080Z,4.5750
2023-04-20T05:02:22.068Z,4.6392
2023-04-20T05:03:24.103Z,4.7492
2023-04-20T05:04:26.017Z,4.6421
2023-04-20T05:05:27.800Z,4.6541
2023-04-20T05:06:29.641Z,4.6552
2023-04-20T05:07:31.399Z,4.6393
2023-04-20T05:08:33.171Z,4.6354
2023-04-20T05:09:34.951Z,4.6808
2023-04-20T05:10:36.713Z,4.6248
2023-04-20T05:11:38.485Z,4.5679
2023-04-20T05:12:40.228Z,4.5986
2023-04-20T05:13:42.019Z,4.6678
2023-04-20T05:14:43.818Z,4.6746
2023-04-20T05:15:45.587Z,4.5926
2023-04-20T05:16:47.488Z,4.5791
2023-04-20T05:17:49.291Z,4.5724
2023-04-20T05:18:51.095Z,4.5687
2023-04-20T05:19:52.852Z,4.5658
2023-04-20T05:20:54.608Z,4.6095
2023-04-20T05:21:56.366Z,4.5853
2023-04-20T05:22:58.152Z,4.5531
2023-04-20T05:23:59.892Z,4.5814
2023-04-20T05:25:01.674Z,4.6348
2023-04-20T05:26:03.395Z,4.6014
2023-04-20T05:27:05.223Z,4.6535
2023-04-20T05:28:06.985Z,4.6354
2023-04-20T05:29:08.744Z,4.6021
2023-04-20T05:30:20.357Z,4.5870
2023-04-20T05:31:12.925Z,4.5856
2023-04-20T05:32:14.711Z,4.6328
2023-04-20T05:33:16.522Z,4.6393
2023-04-20T05:34:18.273Z,4.6457
2023-04-20T05:35:20.063Z,4.5814
2023-04-20T05:36:21.779Z,4.5972
2023-04-20T05:37:23.551Z,4.6423
2023-04-20T05:38:25.262Z,4.6613
2023-04-20T05:39:27.044Z,4.7317
2023-04-20T05:40:28.756Z,4.7298
2023-04-20T05:41:30.552Z,4.6420
2023-04-20T05:42:32.255Z,4.6877
2023-04-20T05:43:33.998Z,4.6701
2023-04-20T05:44:35.844Z,4.5799
2023-04-20T05:45:35.958Z,4.5511
2023-04-20T05:46:37.707Z,4.5620
2023-04-20T05:47:39.565Z,4.6189
2023-04-20T05:48:41.279Z,4.6498
2023-04-20T05:49:43.083Z,4.6283
2023-04-20T05:50:44.848Z,4.6054
2023-04-20T05:51:46.647Z,4.5950
2023-04-20T05:52:48.439Z,4.5204
2023-04-20T05:53:50.242Z,4.5822
2023-04-20T05:54:51.992Z,4.5510
2023-04-20T05:55:53.830Z,4.5776
2023-04-20T05:56:55.527Z,4.4925
2023-04-20T05:57:57.320Z,4.5650
2023-04-20T05:58:59.082Z,4.6924
2023-04-20T06:00:00.857Z,4.7219
2023-04-20T06:01:02.608Z,4.6711
2023-04-20T06:02:04.424Z,4.6411
2023-04-20T06:03:06.397Z,4.5993
2023-04-20T06:04:08.737Z,4.5589
2023-04-20T06:05:11.285Z,4.5474
2023-04-20T06:06:14.901Z,4.6054
2023-04-20T06:07:15.258Z,4.6351
2023-04-20T06:08:16.996Z,4.5303
2023-04-20T06:09:18.985Z,4.4988
2023-04-20T06:10:20.907Z,4.5019
2023-04-20T06:11:22.674Z,4.5399
2023-04-20T06:12:26.249Z,4.5009
2023-04-20T06:13:25.798Z,4.5307
2023-04-20T06:14:27.587Z,4.5214
2023-04-20T06:15:29.302Z,4.5232
2023-04-20T06:16:31.089Z,4.5303
2023-04-20T06:17:32.881Z,4.4748
2023-04-20T06:18:34.282Z,4.5261
2023-04-20T06:19:36.070Z,4.4566
2023-04-20T06:20:37.793Z,4.5186
2023-04-20T06:21:39.565Z,4.4301
2023-04-20T06:22:41.299Z,4.4308
2023-04-20T06:23:43.068Z,4.4315
2023-04-20T06:24:44.851Z,4.4373
2023-04-20T06:25:46.691Z,4.4790
2023-04-20T06:26:46.996Z,4.4933
2023-04-20T06:27:50.655Z,4.4634
2023-04-20T06:28:51.143Z,4.4661
2023-04-20T06:29:52.966Z,4.4305
2023-04-20T06:30:54.763Z,4.4227
2023-04-20T06:31:56.509Z,4.3975
2023-04-20T06:32:58.367Z,4.5339
2023-04-20T06:34:00.089Z,4.4759
2023-04-20T06:35:01.911Z,4.4475
2023-04-20T06:36:03.642Z,4.4462
2023-04-20T06:37:05.400Z,4.4260
2023-04-20T06:38:07.225Z,4.3989
2023-04-20T06:39:09.006Z,4.4029
2023-04-20T06:40:10.772Z,4.4408
2023-04-20T06:41:12.518Z,4.4042
2023-04-20T06:42:14.224Z,4.3097
2023-04-20T06:43:15.979Z,4.3995
2023-04-20T06:44:17.735Z,4.3633
2023-04-20T06:45:19.559Z,4.4488
2023-04-20T06:46:21.342Z,4.3732
2023-04-20T06:47:23.149Z,4.3095
2023-04-20T06:48:32.089Z,4.2694
2023-04-20T06:49:27.373Z,4.2562
2023-04-20T06:50:29.139Z,4.2323
2023-04-20T06:51:30.867Z,4.2217
2023-04-20T06:52:32.588Z,4.3895
2023-04-20T06:53:34.319Z,4.4302
2023-04-20T06:54:36.053Z,4.3104
2023-04-20T06:55:37.819Z,4.3045
2023-04-20T06:56:39.587Z,4.3231
2023-04-20T06:57:41.335Z,4.2659
2023-04-20T06:58:43.090Z,4.2683
2023-04-20T06:59:44.871Z,4.1880
2023-04-20T07:00:46.696Z,4.2837
2023-04-20T07:01:48.508Z,4.3743
2023-04-20T07:02:50.366Z,4.3912
2023-04-20T07:03:52.583Z,4.1850
2023-04-20T07:04:54.664Z,4.2071
2023-04-20T07:05:56.499Z,4.3177
2023-04-20T07:06:58.364Z,4.2257
2023-04-20T07:08:00.170Z,4.2243
2023-04-20T07:09:02.057Z,4.3189
2023-04-20T07:10:03.867Z,4.3842
2023-04-20T07:11:05.615Z,4.4262
2023-04-20T07:12:07.423Z,4.4114
2023-04-20T07:13:09.206Z,4.3903
2023-04-20T07:14:10.999Z,4.3261
2023-04-20T07:15:12.760Z,4.2333
2023-04-20T07:16:14.556Z,4.2871
2023-04-20T07:17:16.331Z,4.2294
2023-04-20T07:18:18.173Z,4.1611
2023-04-20T07:19:20.115Z,4.1091
2023-04-20T07:20:21.915Z,4.1490
2023-04-20T07:21:23.684Z,4.0925
2023-04-20T07:22:25.436Z,4.0724
2023-04-20T07:23:27.212Z,3.9850
2023-04-20T07:24:29.059Z,3.9874
2023-04-20T07:25:30.755Z,3.9813
2023-04-20T07:26:32.540Z,3.9477
2023-04-20T07:27:34.314Z,4.1126
2023-04-20T07:28:36.161Z,4.0633
2023-04-20T07:29:37.954Z,4.1915
2023-04-20T07:30:39.719Z,4.1907
2023-04-20T07:31:41.563Z,4.1923
2023-04-20T07:32:43.348Z,4.2448
2023-04-20T07:33:45.142Z,4.2183
2023-04-20T07:34:46.948Z,4.2442
2023-04-20T07:35:48.777Z,4.1898
2023-04-20T07:36:50.577Z,4.1660
2023-04-20T07:37:52.366Z,4.2065
2023-04-20T07:38:54.181Z,4.1827
2023-04-20T07:39:55.981Z,4.1601
2023-04-20T07:40:57.727Z,4.1163
2023-04-20T07:41:59.503Z,4.1155
2023-04-20T07:43:01.276Z,4.1662
2023-04-20T07:44:03.063Z,4.2627
2023-04-20T07:45:04.850Z,4.2786
2023-04-20T07:46:06.683Z,4.3181
2023-04-20T07:47:08.431Z,4.3027
2023-04-20T07:48:10.224Z,4.1559
2023-04-20T07:49:11.985Z,4.0707
2023-04-20T07:50:13.767Z,4.0960
2023-04-20T07:51:15.900Z,4.1479
2023-04-20T07:52:17.963Z,4.1125
2023-04-20T07:53:19.708Z,4.1235
2023-04-20T07:54:21.502Z,4.1397
2023-04-20T07:55:23.252Z,4.1219
2023-04-20T07:56:25.037Z,4.1026
2023-04-20T07:57:26.823Z,4.0489
2023-04-20T07:58:28.591Z,4.1158
2023-04-20T07:59:30.340Z,4.1367
2023-04-20T08:00:32.132Z,4.1663
2023-04-20T08:01:33.952Z,4.0730
2023-04-20T08:02:35.859Z,4.0585
2023-04-20T08:03:37.978Z,4.1057
2023-04-20T08:04:40.617Z,4.0580
2023-04-20T08:05:42.643Z,4.0183
2023-04-20T08:06:44.413Z,4.0188
2023-04-20T08:07:46.197Z,3.9661
2023-04-20T08:08:47.986Z,3.9809
2023-04-20T08:09:49.838Z,4.0364
2023-04-20T08:10:51.621Z,4.0512
2023-04-20T08:11:53.431Z,4.0558
2023-04-20T08:12:55.238Z,4.0188
2023-04-20T08:13:58.346Z,3.9831
2023-04-20T08:14:57.728Z,3.9378
2023-04-20T08:15:59.589Z,3.9763
2023-04-20T08:17:01.612Z,3.9590
2023-04-20T08:18:03.485Z,4.0373
2023-04-20T08:19:05.607Z,4.0615
2023-04-20T08:20:07.370Z,4.1423
2023-04-20T08:21:09.144Z,4.1303
2023-04-20T08:22:11.024Z,4.1252
2023-04-20T08:23:12.748Z,4.2072
2023-04-20T08:24:14.559Z,4.3634
2023-04-20T08:25:16.343Z,4.4552
2023-04-20T08:26:18.127Z,4.4719
2023-04-20T08:27:19.934Z,4.3174
2023-04-20T08:28:33.351Z,4.2572
2023-04-20T08:29:24.060Z,4.2891
2023-04-20T08:30:25.873Z,4.3299
2023-04-20T08:31:26.107Z,4.3385
2023-04-20T08:32:27.919Z,4.3087
2023-04-20T08:33:29.713Z,4.3544
2023-04-20T08:34:31.515Z,4.2385
2023-04-20T08:35:33.328Z,4.2801
2023-04-20T08:36:35.121Z,4.1647
2023-04-20T08:37:36.884Z,4.1457
2023-04-20T08:38:38.808Z,4.0846
2023-04-20T08:39:40.612Z,4.0145
2023-04-20T08:40:42.440Z,4.1656
2023-04-20T08:41:44.224Z,4.3783
2023-04-20T08:42:46.062Z,4.3755
2023-04-20T08:43:47.902Z,4.2872
2023-04-20T08:44:49.745Z,4.2906
2023-04-20T08:45:51.509Z,4.3055
2023-04-20T08:46:53.341Z,4.3325
2023-04-20T08:47:55.136Z,4.3406
2023-04-20T08:48:56.887Z,4.3584
2023-04-20T08:49:58.667Z,4.4359
2023-04-20T08:51:00.470Z,4.3686
2023-04-20T08:52:02.278Z,4.4156
2023-04-20T08:53:04.073Z,4.3349
2023-04-20T08:54:05.941Z,4.2663
2023-04-20T08:55:07.801Z,4.3513
2023-04-20T08:56:09.565Z,4.4072
2023-04-20T08:57:11.350Z,4.4467
2023-04-20T08:58:13.153Z,4.4461
2023-04-20T08:59:14.960Z,4.5449
2023-04-20T09:00:16.712Z,4.5767
2023-04-20T09:01:22.688Z,4.6243
2023-04-20T09:02:21.064Z,4.5563
2023-04-20T09:03:23.125Z,4.5931
2023-04-20T09:04:25.665Z,4.6411
2023-04-20T09:05:25.542Z,4.5429
2023-04-20T09:06:27.307Z,4.5535
2023-04-20T09:07:29.094Z,4.5951
2023-04-20T09:08:30.948Z,4.5387
2023-04-20T09:09:32.754Z,4.4577
2023-04-20T09:10:34.553Z,4.4273
2023-04-20T09:11:36.383Z,4.5551
2023-04-20T09:12:38.220Z,4.7050
2023-04-20T09:13:40.014Z,4.6769
2023-04-20T09:14:41.836Z,4.6401
2023-04-20T09:15:43.595Z,4.5917
2023-04-20T09:16:45.461Z,4.7176
2023-04-20T09:17:47.279Z,4.8151
2023-04-20T09:18:49.078Z,4.9188
2023-04-20T09:19:50.857Z,4.8856
2023-04-20T09:20:52.685Z,4.9708
2023-04-20T09:21:54.468Z,4.9182
2023-04-20T09:22:56.208Z,5.1016
2023-04-20T09:23:58.033Z,4.9014
2023-04-20T09:24:59.808Z,4.9667
2023-04-20T09:26:01.626Z,5.1966
2023-04-20T09:27:03.464Z,4.9684
2023-04-20T09:28:05.253Z,5.0412
2023-04-20T09:29:07.053Z,5.1094
2023-04-20T09:30:08.791Z,4.9614
2023-04-20T09:31:10.561Z,5.0607
2023-04-20T09:32:12.471Z,5.4841
2023-04-20T09:33:14.294Z,5.5011
2023-04-20T09:34:16.450Z,5.2713
2023-04-20T09:35:18.385Z,5.2967
2023-04-20T09:36:20.212Z,5.5078
2023-04-20T09:37:22.030Z,5.4546
2023-04-20T09:38:23.826Z,5.3559
2023-04-20T09:39:25.601Z,5.3408
2023-04-20T09:40:27.409Z,5.5201
2023-04-20T09:41:29.208Z,5.4974
2023-04-20T09:42:31.051Z,5.5033
2023-04-20T09:43:32.786Z,5.2833
2023-04-20T09:44:34.585Z,5.3929
2023-04-20T09:45:36.397Z,5.2682
2023-04-20T09:46:38.167Z,5.1588
2023-04-20T09:47:39.960Z,5.1498
2023-04-20T09:48:41.718Z,5.1726
2023-04-20T09:49:43.510Z,5.0983
2023-04-20T09:50:49.966Z,5.0084
2023-04-20T09:51:47.680Z,5.0137
2023-04-20T09:52:49.433Z,4.9413
2023-04-20T09:53:52.790Z,4.8848
2023-04-20T09:54:52.151Z,4.9446
2023-04-20T09:55:53.981Z,4.9665
2023-04-20T09:56:55.734Z,4.8806
2023-04-20T09:57:57.525Z,4.9253
2023-04-20T09:58:59.316Z,4.9677
2023-04-20T10:00:01.128Z,4.9185
2023-04-20T10:01:02.863Z,4.9688
2023-04-20T10:02:04.719Z,4.9961
2023-04-20T10:03:06.770Z,4.9903
2023-04-20T10:04:09.056Z,5.0286
2023-04-20T10:05:11.275Z,4.9428
2023-04-20T10:06:13.051Z,4.9917
2023-04-20T10:07:14.829Z,5.0106
2023-04-20T10:08:16.624Z,5.0652
2023-04-20T10:09:18.390Z,5.0435
2023-04-20T10:10:20.248Z,4.9862
2023-04-20T10:11:22.118Z,5.0578
2023-04-20T10:12:23.884Z,5.0315
2023-04-20T10:13:25.628Z,5.0501
2023-04-20T10:14:27.424Z,5.0787
2023-04-20T10:15:29.224Z,5.0768
2023-04-20T10:16:31.088Z,5.0519
2023-04-20T10:17:33.024Z,5.1023
2023-04-20T10:18:35.171Z,5.0963
2023-04-20T10:19:37.006Z,5.1692
2023-04-20T10:20:38.804Z,5.1693
2023-04-20T10:21:40.588Z,5.1354
2023-04-20T10:22:42.394Z,5.0894
2023-04-20T10:23:44.188Z,5.0437
2023-04-20T10:24:45.953Z,5.0754
2023-04-20T10:25:47.711Z,5.0962
2023-04-20T10:26:49.499Z,5.1660
2023-04-20T10:27:51.293Z,5.1012
2023-04-20T10:28:53.157Z,5.0618
2023-04-20T10:29:54.955Z,5.1434
2023-04-20T10:30:56.789Z,5.0550
2023-04-20T10:31:58.536Z,5.0140
2023-04-20T10:33:00.396Z,5.1281
2023-04-20T10:34:02.152Z,5.1094
2023-04-20T10:35:03.939Z,5.0356
2023-04-20T10:36:05.734Z,5.1321
2023-04-20T10:37:07.524Z,5.1828
2023-04-20T10:38:09.300Z,5.2261
2023-04-20T10:39:11.109Z,5.1451
2023-04-20T10:40:12.882Z,5.1415
2023-04-20T10:41:14.654Z,5.0977
2023-04-20T10:42:18.166Z,5.1245
2023-04-20T10:43:17.454Z,5.0855
2023-04-20T10:44:19.400Z,5.1384
2023-04-20T10:45:21.261Z,5.1913
2023-04-20T10:46:23.164Z,5.1866
2023-04-20T10:47:25.033Z,5.1596
2023-04-20T10:48:26.851Z,5.1941
2023-04-20T10:49:28.645Z,5.2931
2023-04-20T10:50:30.413Z,5.2576
2023-04-20T10:51:32.229Z,5.2746
2023-04-20T10:52:34.001Z,5.2112
2023-04-20T10:53:35.793Z,5.2790
2023-04-20T10:54:37.608Z,5.2478
2023-04-20T10:55:39.400Z,5.2317
2023-04-20T10:56:41.189Z,5.1609
2023-04-20T10:57:42.999Z,4.9982
2023-04-20T10:58:44.800Z,4.9169
2023-04-20T10:59:46.623Z,5.0032
2023-04-20T11:00:48.355Z,5.0255
2023-04-20T11:01:50.166Z,5.1791
2023-04-20T11:02:52.055Z,5.1694
2023-04-20T11:03:53.959Z,5.1005
2023-04-20T11:04:55.807Z,4.9682
2023-04-20T11:05:57.560Z,4.9322
2023-04-20T11:06:59.356Z,4.9094
2023-04-20T11:08:01.183Z,4.9204
2023-04-20T11:09:02.946Z,4.9306
2023-04-20T11:10:04.772Z,5.0452
2023-04-20T11:11:06.555Z,5.1468
2023-04-20T11:12:08.393Z,5.1224
2023-04-20T11:13:10.272Z,5.1757
2023-04-20T11:14:12.106Z,5.1090
2023-04-20T11:15:13.909Z,5.1128
2023-04-20T11:16:15.762Z,5.1366
2023-04-20T11:17:17.642Z,5.2218
2023-04-20T11:18:19.553Z,5.2492
2023-04-20T11:19:21.401Z,5.1995
2023-04-20T11:20:23.189Z,5.1403
2023-04-20T11:21:24.912Z,5.0314
2023-04-20T11:22:26.707Z,5.0497
2023-04-20T11:23:28.504Z,5.0634
2023-04-20T11:24:30.273Z,5.0549
2023-04-20T11:25:32.143Z,5.0891
2023-04-20T11:26:33.964Z,5.1397
2023-04-20T11:27:35.821Z,5.1049
2023-04-20T11:28:37.640Z,5.1072
2023-04-20T11:29:39.438Z,5.1253
2023-04-20T11:30:41.455Z,5.1439
2023-04-20T11:31:43.417Z,5.1756
2023-04-20T11:32:45.346Z,5.1669
2023-04-20T11:33:47.282Z,5.2266
2023-04-20T11:34:55.926Z,5.2288
2023-04-20T11:35:51.657Z,5.3457
2023-04-20T11:36:53.513Z,5.2871
2023-04-20T11:37:55.345Z,5.3077
2023-04-20T11:38:57.267Z,5.3284
2023-04-20T11:39:59.092Z,5.3265
2023-04-20T11:41:00.854Z,5.2614
2023-04-20T11:42:02.638Z,5.1519
2023-04-20T11:43:04.450Z,5.1007
2023-04-20T11:44:06.263Z,5.1035
2023-04-20T11:45:08.068Z,5.1511
2023-04-20T11:46:09.963Z,4.9663
2023-04-20T11:47:11.763Z,5.0208
2023-04-20T11:48:13.566Z,5.0459
2023-04-20T11:49:15.521Z,5.2029
2023-04-20T11:50:17.523Z,5.1830
2023-04-20T11:51:19.274Z,5.1880
2023-04-20T11:52:21.113Z,5.1736
2023-04-20T11:53:22.960Z,5.1964
2023-04-20T11:54:24.758Z,5.2090
2023-04-20T11:55:26.594Z,5.1432
2023-04-20T11:56:28.648Z,5.1420
2023-04-20T11:57:30.534Z,5.1531
2023-04-20T11:58:32.339Z,5.0701
2023-04-20T11:59:34.220Z,5.0228
2023-04-20T12:00:36.022Z,5.0726
2023-04-20T12:01:37.900Z,5.1240
2023-04-20T12:02:39.877Z,5.0915
2023-04-20T12:03:42.608Z,5.1748
2023-04-20T12:04:42.865Z,5.1981
2023-04-20T12:05:44.935Z,5.2385
2023-04-20T12:06:46.776Z,5.2054
2023-04-20T12:07:48.617Z,5.1416
2023-04-20T12:08:50.495Z,5.1720
2023-04-20T12:09:52.390Z,5.1518
2023-04-20T12:10:56.009Z,5.1932
2023-04-20T12:11:56.651Z,5.2312
2023-04-20T12:12:58.483Z,5.2471
2023-04-20T12:14:00.363Z,5.2534
2023-04-20T12:15:02.217Z,5.2731
2023-04-20T12:16:04.167Z,5.2724
2023-04-20T12:17:06.300Z,5.2972
2023-04-20T12:18:08.227Z,5.3139
2023-04-20T12:19:10.113Z,5.2728
2023-04-20T12:20:11.997Z,5.3814
2023-04-20T12:21:13.842Z,5.3011
2023-04-20T12:22:15.707Z,5.2590
2023-04-20T12:23:17.558Z,5.2091
2023-04-20T12:24:19.390Z,5.1853
2023-04-20T12:25:21.237Z,5.1941
2023-04-20T12:26:34.904Z,5.3633
2023-04-20T12:27:25.549Z,5.4075
2023-04-20T12:28:27.417Z,5.3565
2023-04-20T12:29:29.247Z,5.3226
2023-04-20T12:30:31.175Z,5.2816
2023-04-20T12:31:33.014Z,5.3304
2023-04-20T12:32:34.897Z,5.3715
2023-04-20T12:33:36.716Z,5.3912
2023-04-20T12:34:38.599Z,5.3342
2023-04-20T12:35:40.568Z,5.3243
2023-04-20T12:36:42.402Z,5.3559
2023-04-20T12:37:44.192Z,5.3381
2023-04-20T12:38:46.033Z,5.2853
2023-04-20T12:39:47.867Z,5.2939
2023-04-20T12:40:49.723Z,5.2846
2023-04-20T12:41:51.589Z,5.2999
2023-04-20T12:42:53.448Z,5.3121
2023-04-20T12:43:55.325Z,5.2658
2023-04-20T12:44:57.182Z,5.2411
2023-04-20T12:45:59.011Z,5.2061
2023-04-20T12:47:00.910Z,5.1423
2023-04-20T12:48:02.848Z,5.1653
2023-04-20T12:49:04.729Z,5.3460
2023-04-20T12:50:06.590Z,5.2443
2023-04-20T12:51:08.458Z,5.3292